createdAt,value
2019-02-11T11:24:42.854Z,73.60
2019-02-11T11:25:42.789Z,73.40
2019-02-11T11:26:42.788Z,73.15
2019-02-11T11:27:42.769Z,73.43
2019-02-11T11:28:42.792Z,72.30
2019-02-11T11:29:42.754Z,71.64
2019-02-11T11:30:42.746Z,71.64
2019-02-11T11:31:42.900Z,71.27
2019-02-11T11:32:42.725Z,71.78
2019-02-11T11:33:42.705Z,71.27
2019-02-11T11:34:42.750Z,71.78
2019-02-11T11:35:42.692Z,71.78
2019-02-11T11:36:42.707Z,71.99
2019-02-11T11:37:42.674Z,72.26
2019-02-11T11:38:42.662Z,72.16
2019-02-11T11:39:42.694Z,71.64
2019-02-11T11:40:42.675Z,71.13
2019-02-11T11:41:42.613Z,71.24
2019-02-11T11:42:42.639Z,71.24
2019-02-11T11:43:42.651Z,71.24
2019-02-11T11:44:42.634Z,71.13
2019-02-11T11:45:42.578Z,71.44
2019-02-11T11:46:47.061Z,71.06
2019-02-11T11:48:07.889Z,71.24
2019-02-11T11:49:07.874Z,71.13
2019-02-11T11:50:07.888Z,71.33
2019-02-11T11:51:08.723Z,71.24
2019-02-11T11:52:07.861Z,71.03
2019-02-11T11:53:07.869Z,70.31
2019-02-11T11:54:07.815Z,70.41
2019-02-11T11:55:07.799Z,70.20
2019-02-11T11:56:07.797Z,69.48
2019-02-11T11:57:07.800Z,69.83
2019-02-11T11:58:07.844Z,70.31
2019-02-11T11:59:07.821Z,71.27
2019-02-11T12:00:38.616Z,71.03
2019-02-11T12:01:33.553Z,70.41
2019-02-11T12:02:33.387Z,71.44
2019-02-11T12:03:33.350Z,71.24
2019-02-11T12:04:33.354Z,70.82
2019-02-11T12:05:33.331Z,70.52
2019-02-11T12:06:33.323Z,70.07
2019-02-11T12:07:33.382Z,69.76
2019-02-11T12:08:33.317Z,69.69
2019-02-11T12:09:33.315Z,69.79
2019-02-11T12:10:33.367Z,69.89
2019-02-11T12:11:33.306Z,70.37
2019-02-11T12:12:33.297Z,69.65
2019-02-11T12:13:33.284Z,69.55
2019-02-11T12:14:33.266Z,69.65
2019-02-11T12:15:36.338Z,69.86
2019-02-11T12:16:33.208Z,69.25
2019-02-11T12:17:33.207Z,69.35
2019-02-11T12:18:33.204Z,69.31
2019-02-11T12:19:33.173Z,69.52
2019-02-11T12:20:34.499Z,69.31
2019-02-11T12:21:33.173Z,69.31
2019-02-11T12:22:33.161Z,69.28
2019-02-11T12:23:33.146Z,68.98
2019-02-11T12:24:33.125Z,68.87
2019-02-11T12:25:33.140Z,69.04
2019-02-11T12:26:33.106Z,69.25
2019-02-11T12:27:33.109Z,67.23
2019-02-11T12:28:33.083Z,67.33
2019-02-11T12:29:33.077Z,67.67
2019-02-11T12:30:33.096Z,68.70
2019-02-11T12:31:33.057Z,67.91
2019-02-11T12:32:33.058Z,68.73
2019-02-11T12:33:33.038Z,69.14
2019-02-11T12:34:33.021Z,68.63
2019-02-11T12:35:33.007Z,69.17
2019-02-11T12:36:33.010Z,69.07
2019-02-11T12:37:32.987Z,69.17
2019-02-11T12:38:33.005Z,69.59
2019-02-11T12:39:32.975Z,69.38
2019-02-11T12:40:32.988Z,69.59
2019-02-11T12:41:32.960Z,69.38
2019-02-11T12:42:32.961Z,68.97
2019-02-11T12:43:32.939Z,69.17
2019-02-11T12:44:32.931Z,69.48
2019-02-11T12:45:34.131Z,69.38
2019-02-11T12:46:32.893Z,68.93
2019-02-11T12:47:32.881Z,68.76
2019-02-11T12:48:32.889Z,68.76
2019-02-11T12:49:33.077Z,68.97
2019-02-11T12:50:32.877Z,69.79
2019-02-11T12:51:32.898Z,69.28
2019-02-11T12:52:32.830Z,68.76
2019-02-11T12:53:32.819Z,69.07
2019-02-11T12:54:33.201Z,69.38
2019-02-11T12:55:32.790Z,69.41
2019-02-11T12:56:32.808Z,69.21
2019-02-11T12:57:32.818Z,69.28
2019-02-11T12:58:32.751Z,69.38
2019-02-11T12:59:32.753Z,68.90
2019-02-11T13:00:32.758Z,68.48
2019-02-11T13:01:32.778Z,69.14
2019-02-11T13:02:32.722Z,69.86
2019-02-11T13:03:32.712Z,70.06
2019-02-11T13:04:32.694Z,70.37
2019-02-11T13:05:45.224Z,69.86
2019-02-11T13:06:57.762Z,69.14
2019-02-11T13:07:57.764Z,69.54
2019-02-11T13:08:57.768Z,69.14
2019-02-11T13:09:57.728Z,69.65
2019-02-11T13:10:57.756Z,69.24
2019-02-11T13:11:57.722Z,69.24
2019-02-11T13:12:57.699Z,69.34
2019-02-11T13:13:57.722Z,69.24
2019-02-11T13:14:57.691Z,69.86
2019-02-11T13:16:02.135Z,69.75
2019-02-11T13:16:57.653Z,69.78
2019-02-11T13:17:57.675Z,70.20
2019-02-11T13:18:57.625Z,69.86
2019-02-11T13:20:08.521Z,69.68
2019-02-11T13:21:22.857Z,70.20
2019-02-11T13:22:22.826Z,70.81
2019-02-11T13:23:22.813Z,70.58
2019-02-11T13:24:22.822Z,70.68
2019-02-11T13:25:22.792Z,70.17
2019-02-11T13:26:25.691Z,69.93
2019-02-11T13:27:22.758Z,69.62
2019-02-11T13:28:22.762Z,70.03
2019-02-11T13:29:22.753Z,69.51
2019-02-11T13:30:22.748Z,69.51
2019-02-11T13:31:22.729Z,70.44
2019-02-11T13:32:22.726Z,70.03
2019-02-11T13:33:22.696Z,69.93
2019-02-11T13:34:22.700Z,69.79
2019-02-11T13:35:22.703Z,69.69
2019-02-11T13:36:22.667Z,69.17
2019-02-11T13:37:22.659Z,69.48
2019-02-11T13:38:22.663Z,69.69
2019-02-11T13:39:22.644Z,69.17
2019-02-11T13:40:22.673Z,69.38
2019-02-11T13:41:22.632Z,69.59
2019-02-11T13:42:22.604Z,69.07
2019-02-11T13:43:22.602Z,69.28
2019-02-11T13:44:22.585Z,69.25
2019-02-11T13:45:22.590Z,69.14
2019-02-11T13:46:22.684Z,68.56
2019-02-11T13:47:22.565Z,68.97
2019-02-11T13:48:22.551Z,69.17
2019-02-11T13:49:22.547Z,69.59
2019-02-11T13:50:22.520Z,69.48
2019-02-11T13:51:22.562Z,69.69
2019-02-11T13:52:22.523Z,69.48
2019-02-11T13:53:22.494Z,70.10
2019-02-11T13:54:22.480Z,70.31
2019-02-11T13:55:22.468Z,70.00
2019-02-11T13:56:22.455Z,70.10
2019-02-11T13:57:22.491Z,70.13
2019-02-11T13:58:22.432Z,71.24
2019-02-11T13:59:22.412Z,71.30
2019-02-11T14:00:22.466Z,71.37
2019-02-11T14:01:22.397Z,71.58
2019-02-11T14:02:22.401Z,72.09
2019-02-11T14:03:22.381Z,72.74
2019-02-11T14:04:22.386Z,72.91
2019-02-11T14:05:22.425Z,73.57
2019-02-11T14:06:22.382Z,74.84
2019-02-11T14:07:22.361Z,75.97
2019-02-11T14:08:22.343Z,76.90
2019-02-11T14:09:22.333Z,78.69
2019-02-11T14:10:22.316Z,78.90
2019-02-11T14:11:22.290Z,80.13
2019-02-11T14:12:22.477Z,80.03
2019-02-11T14:13:22.311Z,79.41
2019-02-11T14:14:22.303Z,77.76
2019-02-11T14:15:22.247Z,78.27
2019-02-11T14:16:22.251Z,77.66
2019-02-11T14:17:22.214Z,77.66
2019-02-11T14:18:22.206Z,78.07
2019-02-11T14:19:22.223Z,78.07
2019-02-11T14:20:22.218Z,77.04
2019-02-11T14:21:22.197Z,76.01
2019-02-11T14:22:22.179Z,77.04
2019-02-11T14:23:22.200Z,76.62
2019-02-11T14:24:22.145Z,76.94
2019-02-11T14:25:40.572Z,75.90
2019-02-11T14:26:47.958Z,76.11
2019-02-11T14:27:47.985Z,78.07
2019-02-11T14:28:49.725Z,78.93
2019-02-11T14:29:47.936Z,79.34
2019-02-11T14:30:47.907Z,80.07
2019-02-11T14:31:47.898Z,79.55
2019-02-11T14:32:47.901Z,80.10
2019-02-11T14:33:47.987Z,81.34
2019-02-11T14:34:47.926Z,82.37
2019-02-11T14:35:47.920Z,83.34
2019-02-11T14:36:47.926Z,84.06
2019-02-11T14:37:47.825Z,84.99
2019-02-11T14:38:47.845Z,85.04
2019-02-11T14:39:47.812Z,86.44
2019-02-11T14:40:48.093Z,86.48
2019-02-11T14:41:47.821Z,87.41
2019-02-11T14:42:47.775Z,88.44
2019-02-11T14:43:47.800Z,89.33
2019-02-11T14:44:47.773Z,88.81
2019-02-11T14:45:47.871Z,89.37
2019-02-11T14:46:47.729Z,89.44
2019-02-11T14:47:47.801Z,87.82
2019-02-11T14:48:47.723Z,87.72
2019-02-11T14:49:47.748Z,87.82
2019-02-11T14:50:47.687Z,87.51
2019-02-11T14:51:47.704Z,86.99
2019-02-11T14:52:47.667Z,87.68
2019-02-11T14:53:47.888Z,86.79
2019-02-11T14:54:47.890Z,88.23
2019-02-11T14:55:47.634Z,87.93
2019-02-11T14:56:47.653Z,88.40
2019-02-11T14:57:47.621Z,87.89
2019-02-11T14:58:47.602Z,88.40
2019-02-11T14:59:47.586Z,87.99
2019-02-11T15:00:47.571Z,88.14
2019-02-11T15:01:47.563Z,87.62
2019-02-11T15:02:47.583Z,88.23
2019-02-11T15:03:47.992Z,88.14
2019-02-11T15:04:47.542Z,86.89
2019-02-11T15:05:47.527Z,87.41
2019-02-11T15:06:47.509Z,87.72
2019-02-11T15:07:47.499Z,88.03
2019-02-11T15:08:47.507Z,87.72
2019-02-11T15:09:48.344Z,88.44
2019-02-11T15:10:47.455Z,86.38
2019-02-11T15:11:47.511Z,87.72
2019-02-11T15:12:47.470Z,87.06
2019-02-11T15:13:47.443Z,86.89
2019-02-11T15:14:47.440Z,86.69
2019-02-11T15:15:47.417Z,84.00
2019-02-11T15:16:47.398Z,85.96
2019-02-11T15:17:47.388Z,85.55
2019-02-11T15:18:47.395Z,86.38
2019-02-11T15:19:47.357Z,85.86
2019-02-11T15:20:47.367Z,85.96
2019-02-11T15:21:47.344Z,85.65
2019-02-11T15:22:47.335Z,86.07
2019-02-11T15:23:47.436Z,84.62
2019-02-11T15:24:47.326Z,84.00
2019-02-11T15:25:47.303Z,85.14
2019-02-11T15:26:47.292Z,85.14
2019-02-11T15:27:47.276Z,85.96
2019-02-11T15:28:47.272Z,85.34
2019-02-11T15:29:47.253Z,86.38
2019-02-11T15:30:47.238Z,86.38
2019-02-11T15:31:47.284Z,85.86
2019-02-11T15:32:47.270Z,86.89
2019-02-11T15:33:48.228Z,86.59
2019-02-11T15:34:47.190Z,86.89
2019-02-11T15:35:47.249Z,86.99
2019-02-11T15:36:47.177Z,87.41
2019-02-11T15:37:47.175Z,86.62
2019-02-11T15:38:47.152Z,87.24
2019-02-11T15:39:47.531Z,84.25
2019-02-11T15:40:47.143Z,82.90
2019-02-11T15:41:47.116Z,83.21
2019-02-11T15:42:47.116Z,82.49
2019-02-11T15:43:47.108Z,81.35
2019-02-11T15:44:47.094Z,79.69
2019-02-11T15:45:47.101Z,80.56
2019-02-11T15:46:47.062Z,81.08
2019-02-11T15:47:47.070Z,80.56
2019-02-11T15:48:47.121Z,79.22
2019-02-11T15:49:47.039Z,79.01
2019-02-11T15:50:47.039Z,80.35
2019-02-11T15:51:47.143Z,79.94
2019-02-11T15:52:47.038Z,80.70
2019-02-11T15:53:47.086Z,80.35
2019-02-11T15:54:47.001Z,81.18
2019-02-11T15:55:46.978Z,81.08
2019-02-11T15:56:46.960Z,80.87
2019-02-11T15:57:46.945Z,80.56
2019-02-11T15:58:46.932Z,80.25
2019-02-11T15:59:46.925Z,80.39
2019-02-11T16:00:46.914Z,79.87
2019-02-11T16:01:46.905Z,80.49
2019-02-11T16:02:46.905Z,80.29
2019-02-11T16:03:46.888Z,80.60
2019-02-11T16:04:46.987Z,79.36
2019-02-11T16:05:49.610Z,79.56
2019-02-11T16:06:46.849Z,79.36
2019-02-11T16:07:46.862Z,80.29
2019-02-11T16:08:46.831Z,79.36
2019-02-11T16:09:46.814Z,79.05
2019-02-11T16:10:46.805Z,79.05
2019-02-11T16:11:46.860Z,78.43
2019-02-11T16:12:46.789Z,78.74
2019-02-11T16:13:46.783Z,78.22
2019-02-11T16:14:46.765Z,78.74
2019-02-11T16:15:46.773Z,78.15
2019-02-11T16:16:46.782Z,78.43
2019-02-11T16:17:46.752Z,79.08
2019-02-11T16:18:51.859Z,78.46
2019-02-11T16:19:46.710Z,78.32
2019-02-11T16:20:46.743Z,79.29
2019-02-11T16:21:46.691Z,78.57
2019-02-11T16:22:46.676Z,79.08
2019-02-11T16:23:46.729Z,79.19
2019-02-11T16:24:46.663Z,79.19
2019-02-11T16:25:46.653Z,79.08
2019-02-11T16:26:46.658Z,79.40
2019-02-11T16:27:46.637Z,79.19
2019-02-11T16:28:46.616Z,79.40
2019-02-11T16:29:46.598Z,79.70
2019-02-11T16:30:46.598Z,78.67
2019-02-11T16:31:46.607Z,79.43
2019-02-11T16:32:46.574Z,80.32
2019-02-11T16:33:46.567Z,79.40
2019-02-11T16:34:46.553Z,79.40
2019-02-11T16:35:46.546Z,79.33
2019-02-11T16:36:46.527Z,79.43
2019-02-11T16:37:46.518Z,79.63
2019-02-11T16:38:46.516Z,80.46
2019-02-11T16:39:46.495Z,80.15
2019-02-11T16:40:46.479Z,80.36
2019-02-11T16:41:46.476Z,79.94
2019-02-11T16:42:46.467Z,79.94
2019-02-11T16:43:46.450Z,80.57
2019-02-11T16:44:46.450Z,80.67
2019-02-11T16:45:46.446Z,80.78
2019-02-11T16:46:46.419Z,81.12
2019-02-11T16:47:46.414Z,81.33
2019-02-11T16:48:46.439Z,81.33
2019-02-11T16:49:46.392Z,81.64
2019-02-11T16:50:46.389Z,81.19
2019-02-11T16:51:46.402Z,81.95
2019-02-11T16:52:46.373Z,81.75
2019-02-11T16:53:46.391Z,83.30
2019-02-11T16:54:46.332Z,82.68
2019-02-11T16:55:46.353Z,83.30
2019-02-11T16:56:46.343Z,82.89
2019-02-11T16:57:46.319Z,84.02
2019-02-11T16:58:46.306Z,83.82
2019-02-11T16:59:46.300Z,84.33
2019-02-11T17:00:46.274Z,85.06
2019-02-11T17:01:46.264Z,84.58
2019-02-11T17:02:46.246Z,84.79
2019-02-11T17:03:46.268Z,85.10
2019-02-11T17:04:46.221Z,85.21
2019-02-11T17:05:46.214Z,86.24
2019-02-11T17:06:46.198Z,86.96
2019-02-11T17:07:46.204Z,86.76
2019-02-11T17:08:46.186Z,86.24
2019-02-11T17:09:46.169Z,86.55
2019-02-11T17:10:46.178Z,86.76
2019-02-11T17:11:46.161Z,86.24
2019-02-11T18:19:45.410Z,86.88
